Time;durP1;ratioP1;P1;durP2;ratioP2;P2;SDS_P1;SDS_P2;PMS_P1;PMS_P2;Temp;Humidity;BMP_temperature;BMP_pressure;BME280_temperature;BME280_humidity;BME280_pressure;Samples;Min_cycle;Max_cycle;Signal;HPM_P1;HPM_P2
2024/04/02 00:02:04;;;;;;;2.58;1.55;;;9.40;99.90;;;;;;5052079;28;20060;-55
2024/04/02 00:04:30;;;;;;;1.80;1.25;;;9.40;99.90;;;;;;5070817;28;20067;-55
2024/04/02 00:06:56;;;;;;;7.47;2.45;;;9.30;99.90;;;;;;5053721;28;20083;-43
2024/04/02 00:09:21;;;;;;;2.00;1.30;;;9.30;99.90;;;;;;5052934;28;20087;-45
2024/04/02 00:11:47;;;;;;;1.83;1.10;;;9.30;99.90;;;;;;5052842;28;20025;-41
2024/04/02 00:14:12;;;;;;;3.25;1.13;;;9.30;99.90;;;;;;5052952;28;20025;-43
2024/04/02 00:16:38;;;;;;;4.25;1.38;;;9.30;99.90;;;;;;5052729;28;20032;-41
2024/04/02 00:19:04;;;;;;;1.30;1.20;;;9.20;99.90;;;;;;5052747;28;20401;-41
2024/04/02 00:21:30;;;;;;;3.40;1.13;;;9.20;99.90;;;;;;5053012;28;20032;-41
2024/04/02 00:23:55;;;;;;;2.45;1.45;;;9.20;99.90;;;;;;5052332;28;20443;-41
2024/04/02 00:26:22;;;;;;;1.23;1.10;;;9.20;99.90;;;;;;5052598;28;20127;-46
2024/04/02 00:28:49;;;;;;;3.88;0.98;;;9.20;99.90;;;;;;5052650;28;20028;-44
2024/04/02 00:31:15;;;;;;;2.05;1.17;;;9.20;99.90;;;;;;5052545;28;20517;-42
2024/04/02 00:33:41;;;;;;;2.70;1.08;;;9.20;99.90;;;;;;5052597;28;20016;-49
2024/04/02 00:36:07;;;;;;;2.85;1.15;;;9.20;99.90;;;;;;5051356;28;20033;-40
2024/04/02 00:38:33;;;;;;;1.02;0.80;;;9.10;99.90;;;;;;5052495;28;20053;-43
2024/04/02 00:40:59;;;;;;;7.18;0.88;;;9.10;99.90;;;;;;5052373;28;20481;-43
2024/04/02 00:43:26;;;;;;;0.88;0.88;;;9.10;99.90;;;;;;5052485;28;20104;-47
2024/04/02 00:45:52;;;;;;;2.72;1.02;;;9.10;99.90;;;;;;5052583;28;20481;-43
2024/04/02 00:48:19;;;;;;;1.52;0.80;;;9.10;99.90;;;;;;5052356;28;20103;-42
2024/04/02 00:50:46;;;;;;;0.70;0.70;;;9.00;99.90;;;;;;5052393;28;20036;-41
2024/04/02 00:53:14;;;;;;;1.50;1.10;;;9.00;99.90;;;;;;5052380;28;20047;-40
2024/04/02 00:55:41;;;;;;;1.15;0.70;;;9.00;99.90;;;;;;5052276;28;20111;-41
2024/04/02 00:58:07;;;;;;;1.88;1.10;;;8.90;99.90;;;;;;5050964;28;20442;-41
2024/04/02 01:00:36;;;;;;;1.77;1.08;;;8.90;99.90;;;;;;5052185;28;20044;-45
2024/04/02 01:03:03;;;;;;;0.90;0.90;;;8.90;99.90;;;;;;5048767;28;20017;-41
2024/04/02 01:05:30;;;;;;;3.93;0.87;;;8.90;99.90;;;;;;5039095;28;20056;-43
2024/04/02 01:07:55;;;;;;;3.00;0.98;;;8.90;99.90;;;;;;5051952;28;20074;-43
2024/04/02 01:10:21;;;;;;;0.95;0.82;;;8.90;99.90;;;;;;5052058;28;20423;-45
2024/04/02 01:12:47;;;;;;;3.25;0.60;;;8.80;99.90;;;;;;5052452;28;20020;-46
2024/04/02 01:15:19;;;;;;;1.58;0.95;;;8.80;99.90;;;;;;5052015;28;20033;-42
2024/04/02 01:17:45;;;;;;;1.85;0.95;;;8.80;99.90;;;;;;5049670;28;20532;-47
2024/04/02 01:20:11;;;;;;;4.13;1.30;;;8.80;99.90;;;;;;5038761;28;20049;-42
2024/04/02 01:22:36;;;;;;;1.08;0.90;;;8.80;99.90;;;;;;5036444;28;20036;-40
2024/04/02 01:25:02;;;;;;;1.63;1.15;;;8.90;99.90;;;;;;5032085;28;20444;-40
2024/04/02 01:27:27;;;;;;;3.63;1.75;;;8.80;99.90;;;;;;5032127;28;20029;-43
2024/04/02 01:29:56;;;;;;;1.08;0.82;;;8.80;99.90;;;;;;5050013;28;20021;-45
2024/04/02 01:32:22;;;;;;;1.10;1.00;;;8.80;99.90;;;;;;5049910;28;20075;-41
2024/04/02 01:34:48;;;;;;;2.17;1.00;;;8.80;99.90;;;;;;5040673;28;20025;-44
2024/04/02 01:37:13;;;;;;;1.33;1.10;;;8.80;99.90;;;;;;5036109;28;20048;-41
2024/04/02 01:39:39;;;;;;;0.80;0.80;;;8.80;99.90;;;;;;5036111;28;20025;-41
2024/04/02 01:42:05;;;;;;;1.40;1.00;;;8.80;99.90;;;;;;5046856;28;20032;-40
2024/04/02 01:44:30;;;;;;;2.25;1.13;;;8.70;99.90;;;;;;5056043;28;20037;-42
2024/04/02 01:46:56;;;;;;;1.65;1.23;;;8.70;99.90;;;;;;5050217;28;20014;-49
2024/04/02 01:49:22;;;;;;;3.67;1.40;;;8.70;99.90;;;;;;5036064;28;20025;-40
2024/04/02 01:51:47;;;;;;;2.45;1.25;;;8.70;99.90;;;;;;5051041;28;20025;-42
2024/04/02 01:54:13;;;;;;;2.85;1.30;;;8.70;99.90;;;;;;5054498;28;20032;-42
2024/04/02 01:56:39;;;;;;;5.47;1.05;;;8.70;99.90;;;;;;5055500;28;20025;-42
2024/04/02 01:59:04;;;;;;;2.05;1.20;;;8.70;99.90;;;;;;5055468;28;20174;-43
2024/04/02 02:01:30;;;;;;;1.10;1.00;;;8.70;99.90;;;;;;5054226;28;20032;-44
2024/04/02 02:03:56;;;;;;;1.83;1.30;;;8.70;99.90;;;;;;5035967;28;20095;-46
2024/04/02 02:06:21;;;;;;;4.43;0.90;;;8.70;99.90;;;;;;5038462;28;20512;-42
2024/04/02 02:08:49;;;;;;;3.63;1.55;;;8.70;99.90;;;;;;5055562;28;20493;-41
2024/04/02 02:11:15;;;;;;;3.80;1.10;;;8.70;99.90;;;;;;5055258;28;20025;-44
2024/04/02 02:13:40;;;;;;;1.83;1.17;;;8.70;99.90;;;;;;5055635;28;20023;-40
2024/04/02 02:16:06;;;;;;;5.25;1.50;;;8.70;99.90;;;;;;5054841;28;20021;-40
2024/04/02 02:18:32;;;;;;;4.68;1.20;;;8.70;99.90;;;;;;5055103;28;20036;-46
2024/04/02 02:20:59;;;;;;;2.78;1.20;;;8.70;99.90;;;;;;5055302;28;20040;-43
2024/04/02 02:23:25;;;;;;;1.38;1.10;;;8.70;99.90;;;;;;5055098;28;20042;-42
2024/04/02 02:25:51;;;;;;;1.60;1.50;;;8.60;99.90;;;;;;5055093;28;20154;-40
2024/04/02 02:28:17;;;;;;;3.90;1.42;;;8.60;99.90;;;;;;5055430;28;20052;-43
2024/04/02 02:30:43;;;;;;;4.82;1.70;;;8.60;99.90;;;;;;5053635;28;20477;-44
2024/04/02 02:33:08;;;;;;;3.85;2.60;;;8.60;99.90;;;;;;5039209;28;20028;-43
2024/04/02 02:35:34;;;;;;;2.30;1.58;;;8.60;99.90;;;;;;5035421;28;20451;-42
2024/04/02 02:38:00;;;;;;;1.50;1.25;;;8.70;99.90;;;;;;5033642;28;20437;-47
2024/04/02 02:40:29;;;;;;;2.38;1.40;;;8.70;99.90;;;;;;5034847;28;20445;-43
2024/04/02 02:42:55;;;;;;;1.40;1.30;;;8.60;99.90;;;;;;5035162;28;20103;-46
2024/04/02 02:45:21;;;;;;;2.25;1.40;;;8.60;99.90;;;;;;5049179;28;20079;-44
2024/04/02 02:47:47;;;;;;;3.08;1.75;;;8.60;99.90;;;;;;5053747;28;20040;-43
2024/04/02 02:50:12;;;;;;;6.03;1.65;;;8.60;99.90;;;;;;5054603;28;20056;-41
2024/04/02 02:52:38;;;;;;;1.58;1.48;;;8.50;99.90;;;;;;5042075;28;20024;-42
2024/04/02 02:55:04;;;;;;;5.43;1.77;;;8.50;99.90;;;;;;5034602;28;20021;-46
2024/04/02 02:57:30;;;;;;;4.07;1.50;;;8.50;99.90;;;;;;5033350;28;20660;-41
2024/04/02 02:59:55;;;;;;;4.53;1.63;;;8.50;99.90;;;;;;5034865;28;20124;-41
2024/04/02 03:02:21;;;;;;;2.92;1.70;;;8.50;99.90;;;;;;5039400;28;20343;-43
2024/04/02 03:04:50;;;;;;;2.53;1.42;;;8.50;99.90;;;;;;5054401;28;20029;-43
2024/04/02 03:07:15;;;;;;;3.20;1.77;;;8.60;99.90;;;;;;5048129;28;20025;-42
2024/04/02 03:09:41;;;;;;;7.22;1.60;;;8.60;99.90;;;;;;5034537;28;20379;-40
2024/04/02 03:12:08;;;;;;;2.83;1.77;;;8.60;99.90;;;;;;5034663;28;20057;-43
2024/04/02 03:14:33;;;;;;;2.40;1.50;;;8.60;99.90;;;;;;5034332;28;20478;-39
2024/04/02 03:16:59;;;;;;;7.88;2.30;;;8.50;99.90;;;;;;5037934;28;20043;-42
2024/04/02 03:19:24;;;;;;;2.03;1.83;;;8.50;99.90;;;;;;5054047;28;20033;-41
2024/04/02 03:21:50;;;;;;;2.13;1.58;;;8.50;99.90;;;;;;5054287;28;20490;-45
2024/04/02 03:24:16;;;;;;;3.13;1.52;;;8.50;99.90;;;;;;5054021;28;20477;-41
2024/04/02 03:26:41;;;;;;;9.10;1.55;;;8.50;99.90;;;;;;5050859;28;20025;-43
2024/04/02 03:29:07;;;;;;;4.05;1.58;;;8.50;99.90;;;;;;5034169;28;20022;-42
2024/04/02 03:31:34;;;;;;;13.13;2.20;;;8.50;99.90;;;;;;5033953;28;20404;-43
2024/04/02 03:34:00;;;;;;;3.28;1.30;;;8.50;99.90;;;;;;5051712;28;20032;-40
2024/04/02 03:36:25;;;;;;;2.45;1.67;;;8.50;99.90;;;;;;5053698;28;20025;-44
2024/04/02 03:38:51;;;;;;;3.22;1.50;;;8.50;99.90;;;;;;5053849;28;20389;-42
2024/04/02 03:41:16;;;;;;;3.00;1.67;;;8.50;99.90;;;;;;5053252;28;20086;-41
2024/04/02 03:43:43;;;;;;;12.77;1.52;;;8.50;99.90;;;;;;5051377;28;20537;-46
2024/04/02 03:46:10;;;;;;;3.03;1.58;;;8.50;99.90;;;;;;5033533;28;20556;-40
2024/04/02 03:48:36;;;;;;;2.20;1.42;;;8.50;99.90;;;;;;5047545;28;20029;-42
2024/04/02 03:51:02;;;;;;;2.70;1.70;;;8.50;99.90;;;;;;5052989;28;20469;-42
2024/04/02 03:53:28;;;;;;;7.53;1.75;;;8.50;99.90;;;;;;5033408;28;20470;-44
2024/04/02 03:55:57;;;;;;;2.65;1.80;;;8.50;99.90;;;;;;5033652;28;20024;-40
2024/04/02 03:58:23;;;;;;;2.17;1.45;;;8.50;99.90;;;;;;5032455;28;20052;-40
2024/04/02 04:00:48;;;;;;;3.65;1.65;;;8.50;99.90;;;;;;5033258;28;20029;-41
2024/04/02 04:03:16;;;;;;;2.67;1.33;;;8.50;99.90;;;;;;5051906;28;20029;-41
2024/04/02 04:05:42;;;;;;;4.50;1.88;;;8.50;99.90;;;;;;5053356;28;20112;-40
2024/04/02 04:08:08;;;;;;;7.85;1.48;;;8.50;99.90;;;;;;5051703;28;20541;-41
2024/04/02 04:10:37;;;;;;;6.75;1.83;;;8.40;99.90;;;;;;5053110;28;20021;-40
2024/04/02 04:13:02;;;;;;;7.85;2.63;;;8.50;99.90;;;;;;5053125;28;20083;-40
2024/04/02 04:15:28;;;;;;;2.92;1.50;;;8.40;99.90;;;;;;5053171;28;20021;-41
2024/04/02 04:17:54;;;;;;;4.40;1.55;;;8.50;99.90;;;;;;5038545;28;20028;-42
2024/04/02 04:20:19;;;;;;;2.95;1.83;;;8.50;99.90;;;;;;5037519;28;20056;-43
2024/04/02 04:22:45;;;;;;;5.65;2.10;;;8.50;99.90;;;;;;5052927;28;20029;-41
2024/04/02 04:25:11;;;;;;;2.58;1.58;;;8.50;99.90;;;;;;5051508;28;20025;-42
2024/04/02 04:27:37;;;;;;;1.95;1.52;;;8.40;99.90;;;;;;5052637;28;20029;-41
2024/04/02 04:30:05;;;;;;;2.63;1.48;;;8.40;99.90;;;;;;5049673;28;20075;-42
2024/04/02 04:32:32;;;;;;;3.08;1.55;;;8.40;99.90;;;;;;5041509;28;20025;-42
2024/04/02 04:35:00;;;;;;;5.43;1.38;;;8.40;99.90;;;;;;5052599;28;20025;-40
2024/04/02 04:37:26;;;;;;;5.32;1.40;;;8.40;99.90;;;;;;5052865;28;20466;-41
2024/04/02 04:39:51;;;;;;;2.08;1.88;;;8.40;99.90;;;;;;5051764;28;20116;-43
2024/04/02 04:42:17;;;;;;;2.80;1.67;;;8.40;99.90;;;;;;5052471;28;20029;-41
2024/04/02 04:44:43;;;;;;;4.47;1.60;;;8.50;99.90;;;;;;5052377;28;20021;-40
2024/04/02 04:47:10;;;;;;;3.25;1.65;;;8.50;99.90;;;;;;5051196;28;20033;-42
2024/04/02 04:49:36;;;;;;;1.55;1.42;;;8.50;99.90;;;;;;5052354;28;20025;-40
2024/04/02 04:52:02;;;;;;;2.50;1.40;;;8.50;99.90;;;;;;5052597;28;20070;-42
2024/04/02 04:54:27;;;;;;;2.55;1.83;;;8.60;99.90;;;;;;5051741;28;20133;-41
2024/04/02 04:56:53;;;;;;;3.95;1.65;;;8.60;99.90;;;;;;5048783;28;20017;-44
2024/04/02 04:59:18;;;;;;;5.82;1.80;;;8.60;99.90;;;;;;5032206;28;20028;-39
2024/04/02 05:01:44;;;;;;;4.97;1.48;;;8.60;99.90;;;;;;5032332;28;20104;-40
2024/04/02 05:04:09;;;;;;;2.92;1.40;;;8.60;99.90;;;;;;5050652;28;20024;-42
2024/04/02 05:06:38;;;;;;;3.92;1.30;;;8.60;99.90;;;;;;5052182;28;20025;-39
2024/04/02 05:09:04;;;;;;;3.70;1.40;;;8.70;99.90;;;;;;5051877;28;20068;-42
2024/04/02 05:11:30;;;;;;;3.65;1.63;;;8.80;99.90;;;;;;5034464;28;20053;-43
2024/04/02 05:13:57;;;;;;;4.22;1.20;;;8.80;99.90;;;;;;5031246;28;20037;-41
2024/04/02 05:16:23;;;;;;;1.95;1.40;;;8.80;99.90;;;;;;5043205;28;20477;-41
2024/04/02 05:18:49;;;;;;;3.63;1.40;;;8.70;99.90;;;;;;5045449;28;20041;-40
2024/04/02 05:21:14;;;;;;;6.50;2.10;;;8.70;99.90;;;;;;5052124;28;20040;-41
2024/04/02 05:23:40;;;;;;;4.68;1.40;;;8.70;99.90;;;;;;5051995;28;20512;-42
2024/04/02 05:26:06;;;;;;;2.83;0.90;;;8.80;99.90;;;;;;5036879;28;20029;-39
2024/04/02 05:28:32;;;;;;;1.80;1.35;;;8.80;99.90;;;;;;5032295;28;20035;-41
2024/04/02 05:30:57;;;;;;;1.23;0.82;;;8.80;99.90;;;;;;5031937;28;20033;-40
2024/04/02 05:33:23;;;;;;;2.40;1.48;;;8.80;99.90;;;;;;5038465;28;20124;-41
2024/04/02 05:35:49;;;;;;;10.68;1.52;;;8.90;99.90;;;;;;5051763;28;20465;-42
2024/04/02 05:38:14;;;;;;;2.63;1.15;;;8.90;99.90;;;;;;5051896;28;20024;-42
2024/04/02 05:40:40;;;;;;;4.00;1.10;;;9.00;99.90;;;;;;5051809;28;20512;-44
2024/04/02 05:43:06;;;;;;;1.42;1.10;;;9.00;99.90;;;;;;5041956;28;20402;-42
2024/04/02 05:45:32;;;;;;;3.97;1.70;;;9.00;99.90;;;;;;5049039;28;20486;-39
2024/04/02 05:47:57;;;;;;;3.88;1.05;;;9.00;99.90;;;;;;5051759;28;20179;-39
2024/04/02 05:50:23;;;;;;;5.65;1.55;;;9.00;99.90;;;;;;5050302;28;20029;-40
2024/04/02 05:52:48;;;;;;;2.58;1.38;;;9.00;99.90;;;;;;5033669;28;20382;-39
2024/04/02 05:55:14;;;;;;;7.45;1.42;;;9.10;99.90;;;;;;5032130;28;20502;-44
2024/04/02 05:57:40;;;;;;;7.80;1.40;;;9.20;99.90;;;;;;5043535;28;20037;-41
2024/04/02 06:00:06;;;;;;;9.57;1.30;;;9.20;99.90;;;;;;5051895;28;20428;-44
2024/04/02 06:02:32;;;;;;;2.63;1.23;;;9.30;99.90;;;;;;5051617;28;20060;-40
2024/04/02 06:04:58;;;;;;;3.30;1.45;;;9.30;99.90;;;;;;5051448;28;20465;-41
2024/04/02 06:07:24;;;;;;;3.20;1.50;;;9.30;99.90;;;;;;5051809;28;20108;-38
2024/04/02 06:09:49;;;;;;;11.65;2.05;;;9.40;99.90;;;;;;5051475;28;20025;-40
2024/04/02 06:12:15;;;;;;;4.10;1.45;;;9.50;99.90;;;;;;5050310;28;20021;-40
2024/04/02 06:14:41;;;;;;;6.18;1.30;;;9.50;99.90;;;;;;5050002;28;20013;-42
2024/04/02 06:17:06;;;;;;;2.53;1.10;;;9.50;99.90;;;;;;5051438;28;20052;-42
2024/04/02 06:19:33;;;;;;;8.52;1.83;;;9.60;99.90;;;;;;5049260;28;20033;-42
2024/04/02 06:21:59;;;;;;;2.63;1.27;;;9.70;99.90;;;;;;5045486;28;20417;-42
2024/04/02 06:24:25;;;;;;;5.43;2.92;;;9.80;99.90;;;;;;5051669;28;20029;-43
2024/04/02 06:26:51;;;;;;;6.82;1.30;;;9.80;99.90;;;;;;5044438;28;20034;-42
2024/04/02 06:29:18;;;;;;;2.40;1.10;;;9.90;99.90;;;;;;5047527;28;20052;-39
2024/04/02 06:31:44;;;;;;;3.05;1.25;;;10.00;99.90;;;;;;5054366;28;20033;-39
2024/04/02 06:34:10;;;;;;;4.57;1.20;;;10.00;99.90;;;;;;5042459;28;20079;-40
2024/04/02 06:36:36;;;;;;;7.82;1.30;;;10.00;99.90;;;;;;5050699;28;20525;-39
2024/04/02 06:39:02;;;;;;;5.70;1.70;;;10.10;99.90;;;;;;5053470;28;20493;-40
2024/04/02 06:41:28;;;;;;;7.78;1.52;;;10.10;99.90;;;;;;5054448;28;20029;-42
2024/04/02 06:43:54;;;;;;;6.68;1.30;;;10.00;99.90;;;;;;5054096;28;20555;-39
2024/04/02 06:46:20;;;;;;;3.15;1.55;;;10.10;99.90;;;;;;5053110;28;20393;-43
2024/04/02 06:48:45;;;;;;;10.52;1.77;;;10.10;99.90;;;;;;5051356;28;20021;-41
2024/04/02 06:51:13;;;;;;;1.30;1.20;;;10.10;99.90;;;;;;5043843;28;20117;-42
2024/04/02 06:53:39;;;;;;;11.30;2.53;;;10.10;99.90;;;;;;5050162;28;20017;-41
2024/04/02 06:56:06;;;;;;;1.42;1.15;;;10.20;99.90;;;;;;5051127;28;20033;-42
2024/04/02 06:58:32;;;;;;;3.88;2.33;;;10.10;99.90;;;;;;5052076;28;20421;-40
2024/04/02 07:00:58;;;;;;;5.28;1.85;;;10.10;99.90;;;;;;5051503;28;20060;-43
2024/04/02 07:03:24;;;;;;;8.98;1.80;;;10.20;99.90;;;;;;5051776;28;20036;-52
2024/04/02 07:05:51;;;;;;;2.83;1.58;;;10.30;99.90;;;;;;5044276;28;20448;-39
2024/04/02 07:08:17;;;;;;;6.25;1.77;;;10.30;99.90;;;;;;5049088;28;20030;-40
2024/04/02 07:10:45;;;;;;;3.33;1.27;;;10.30;99.90;;;;;;5034980;28;20030;-41
2024/04/02 07:13:14;;;;;;;4.85;1.85;;;10.30;99.90;;;;;;5050977;28;20041;-45
2024/04/02 07:15:41;;;;;;;6.93;1.58;;;10.30;99.90;;;;;;5042777;28;20057;-42
2024/04/02 07:18:07;;;;;;;3.20;1.23;;;10.40;99.90;;;;;;5034415;28;20470;-40
2024/04/02 07:20:32;;;;;;;5.63;1.38;;;10.40;99.90;;;;;;5034016;28;20052;-41
2024/04/02 07:22:59;;;;;;;7.70;1.95;;;10.30;99.90;;;;;;5049721;28;20070;-40
2024/04/02 07:25:25;;;;;;;3.47;1.70;;;10.30;99.90;;;;;;5054037;28;20078;-41
2024/04/02 07:27:51;;;;;;;5.68;2.53;;;10.30;99.90;;;;;;5053793;28;20037;-40
2024/04/02 07:30:17;;;;;;;4.80;2.45;;;10.30;99.90;;;;;;5053733;28;20493;-43
2024/04/02 07:32:42;;;;;;;6.65;1.90;;;10.30;99.90;;;;;;5053585;28;20032;-41
2024/04/02 07:35:08;;;;;;;7.03;2.53;;;10.30;99.90;;;;;;5053813;28;20032;-41
2024/04/02 07:37:34;;;;;;;4.05;2.40;;;10.40;99.90;;;;;;5053563;28;20025;-41
2024/04/02 07:40:00;;;;;;;10.30;2.33;;;10.40;99.90;;;;;;5053748;28;20386;-42
2024/04/02 07:42:25;;;;;;;10.98;2.63;;;10.40;99.90;;;;;;5053739;28;20021;-39
2024/04/02 07:44:51;;;;;;;5.85;1.90;;;10.50;99.90;;;;;;5053784;28;20086;-39
2024/04/02 07:47:17;;;;;;;7.70;2.83;;;10.60;99.90;;;;;;5052616;28;20025;-45
2024/04/02 07:49:42;;;;;;;7.28;2.13;;;10.80;99.90;;;;;;5050865;28;20166;-40
2024/04/02 07:52:08;;;;;;;10.23;2.28;;;10.80;99.90;;;;;;5052095;28;20497;-41
2024/04/02 07:54:33;;;;;;;5.65;1.90;;;10.90;99.90;;;;;;5053244;28;20028;-41
2024/04/02 07:56:59;;;;;;;12.55;2.10;;;10.90;99.90;;;;;;5052850;28;20564;-43
2024/04/02 07:59:25;;;;;;;11.13;2.45;;;11.00;99.90;;;;;;5053437;28;20021;-39
2024/04/02 08:01:51;;;;;;;8.90;1.88;;;11.00;99.90;;;;;;5053326;28;20033;-39
2024/04/02 08:04:20;;;;;;;8.02;2.25;;;11.00;99.90;;;;;;5052053;28;20021;-42
2024/04/02 08:06:46;;;;;;;9.77;2.22;;;11.10;99.90;;;;;;5053496;28;20543;-43
2024/04/02 08:09:12;;;;;;;10.35;2.28;;;11.00;99.90;;;;;;5052942;28;20070;-42
2024/04/02 08:11:38;;;;;;;8.38;2.58;;;11.00;99.90;;;;;;5052852;28;20481;-39
2024/04/02 08:14:04;;;;;;;12.63;2.67;;;11.00;99.90;;;;;;5052764;28;20167;-40
2024/04/02 08:16:32;;;;;;;8.95;3.22;;;11.00;99.90;;;;;;5052099;28;20098;-41
2024/04/02 08:18:58;;;;;;;12.27;2.38;;;11.10;99.90;;;;;;5052627;28;20040;-54
2024/04/02 08:21:23;;;;;;;9.68;2.67;;;11.00;99.90;;;;;;5053278;28;20021;-53
2024/04/02 08:23:49;;;;;;;5.43;2.65;;;11.10;99.90;;;;;;5050757;28;20036;-56
2024/04/02 08:26:15;;;;;;;11.55;2.65;;;11.10;99.90;;;;;;5041531;28;20517;-57
2024/04/02 08:28:40;;;;;;;13.32;2.55;;;11.10;99.90;;;;;;5052569;28;20094;-57
2024/04/02 08:31:06;;;;;;;12.85;2.78;;;11.20;99.90;;;;;;5052410;28;20032;-56
2024/04/02 08:33:33;;;;;;;9.50;3.08;;;11.30;99.90;;;;;;5051088;28;20029;-53
2024/04/02 08:35:59;;;;;;;5.07;2.75;;;11.40;99.90;;;;;;5051278;28;20498;-53
2024/04/02 08:38:24;;;;;;;7.35;2.78;;;11.40;99.90;;;;;;5043811;28;20049;-56
2024/04/02 08:40:51;;;;;;;12.52;2.80;;;11.50;99.90;;;;;;5037985;28;20029;-55
2024/04/02 08:43:18;;;;;;;10.93;2.03;;;11.50;99.90;;;;;;5052672;28;20036;-54
2024/04/02 08:45:45;;;;;;;6.15;2.22;;;11.60;99.90;;;;;;5052074;28;20435;-54
2024/04/02 08:48:11;;;;;;;6.72;2.10;;;11.90;99.90;;;;;;5052158;28;20025;-52
2024/04/02 08:50:40;;;;;;;8.77;2.05;;;12.00;99.90;;;;;;5052195;28;20032;-55
2024/04/02 08:53:07;;;;;;;4.78;1.67;;;12.10;99.90;;;;;;5049852;28;20029;-55
2024/04/02 08:55:34;;;;;;;8.73;2.08;;;12.10;99.90;;;;;;5044132;28;20098;-54
2024/04/02 08:58:03;;;;;;;8.88;1.92;;;12.10;99.90;;;;;;5052244;28;20505;-54
2024/04/02 09:00:29;;;;;;;8.55;2.15;;;12.20;99.90;;;;;;5050684;28;20029;-55
2024/04/02 09:02:56;;;;;;;8.30;1.80;;;12.50;99.90;;;;;;5052273;28;20108;-53
2024/04/02 09:05:21;;;;;;;3.13;1.13;;;12.50;99.90;;;;;;5051584;28;20028;-51
2024/04/02 09:07:47;;;;;;;4.38;1.45;;;12.80;99.90;;;;;;5052136;28;20032;-54
2024/04/02 09:10:13;;;;;;;3.65;1.30;;;13.10;99.90;;;;;;5051925;28;20449;-52
2024/04/02 09:12:39;;;;;;;7.43;1.25;;;13.20;99.90;;;;;;5052227;28;20027;-54
2024/04/02 09:15:05;;;;;;;6.82;1.60;;;13.30;99.90;;;;;;5051992;28;20466;-54
2024/04/02 09:17:31;;;;;;;8.52;1.73;;;13.10;99.90;;;;;;5052104;28;20040;-55
2024/04/02 09:19:56;;;;;;;9.25;1.20;;;13.00;99.90;;;;;;5052024;28;20485;-54
2024/04/02 09:22:23;;;;;;;5.68;1.58;;;12.80;99.90;;;;;;5050488;28;20017;-55
2024/04/02 09:24:49;;;;;;;3.80;1.50;;;12.70;99.90;;;;;;5051936;28;20013;-55
2024/04/02 09:27:16;;;;;;;2.75;1.60;;;12.50;99.90;;;;;;5051949;28;20385;-54
2024/04/02 09:29:41;;;;;;;7.75;2.42;;;12.60;99.90;;;;;;5051788;28;20089;-51
2024/04/02 09:32:07;;;;;;;4.13;1.50;;;12.70;99.90;;;;;;5051590;28;20021;-55
2024/04/02 09:34:35;;;;;;;7.00;1.80;;;12.80;99.90;;;;;;5032162;28;20018;-53
2024/04/02 09:37:20;;;;;;;16.08;2.03;;;12.90;99.90;;;;;;5045237;28;20470;-53
2024/04/02 09:39:48;;;;;;;7.75;1.80;;;13.00;99.90;;;;;;5050232;28;20497;-54
2024/04/02 09:42:14;;;;;;;10.35;3.15;;;13.00;99.90;;;;;;5051834;28;20021;-52
2024/04/02 09:44:44;;;;;;;8.82;2.60;;;13.00;99.90;;;;;;5051659;28;20064;-52
2024/04/02 09:47:12;;;;;;;4.40;1.75;;;13.00;99.90;;;;;;5051742;28;20112;-57
2024/04/02 09:49:38;;;;;;;8.20;2.17;;;12.90;99.90;;;;;;5052776;28;20032;-55
2024/04/02 09:52:05;;;;;;;5.72;1.83;;;12.80;99.90;;;;;;5050257;28;20017;-54
2024/04/02 09:54:31;;;;;;;9.25;2.47;;;12.70;99.90;;;;;;5051842;28;20477;-54
2024/04/02 09:57:00;;;;;;;7.25;2.35;;;12.40;99.90;;;;;;5053620;28;20052;-53
2024/04/02 09:59:26;;;;;;;12.80;2.50;;;12.20;99.90;;;;;;5070794;28;20017;-53
2024/04/02 10:01:53;;;;;;;10.40;2.92;;;12.20;99.90;;;;;;5055656;28;20035;-51
2024/04/02 10:04:22;;;;;;;3.30;1.67;;;12.20;99.90;;;;;;5055465;28;20033;-55
2024/04/02 10:06:50;;;;;;;5.25;2.17;;;12.10;99.90;;;;;;5055538;28;20639;-53
2024/04/02 10:09:16;;;;;;;;;;;12.10;99.90;;;;;;5056014;28;20017;-53
2024/04/02 10:11:44;;;;;;;8.60;2.63;;;12.10;99.90;;;;;;5055085;28;20369;-55
2024/04/02 10:14:12;;;;;;;6.80;2.53;;;12.10;99.90;;;;;;5055230;28;20082;-54
2024/04/02 10:16:43;;;;;;;11.07;3.55;;;12.00;99.90;;;;;;5055652;28;20520;-54
2024/04/02 10:19:13;;;;;;;9.60;2.80;;;12.00;99.90;;;;;;5055058;28;20405;-53
2024/04/02 10:21:39;;;;;;;13.65;2.50;;;11.90;99.90;;;;;;5055216;28;20389;-55
2024/04/02 10:24:06;;;;;;;7.30;2.47;;;11.80;99.90;;;;;;5055358;28;20517;-53
2024/04/02 10:26:32;;;;;;;8.57;3.03;;;11.60;99.90;;;;;;5054962;28;20078;-53
2024/04/02 10:28:59;;;;;;;9.48;2.92;;;11.50;99.90;;;;;;5054713;28;20021;-53
2024/04/02 10:31:40;;;;;;;11.33;2.87;;;11.50;99.90;;;;;;5053701;28;20041;-55
2024/04/02 10:34:10;;;;;;;5.63;2.53;;;11.40;99.90;;;;;;5040076;28;20265;-54
2024/04/02 10:36:37;;;;;;;7.30;2.45;;;11.40;99.90;;;;;;5034861;28;20029;-53
2024/04/02 10:39:03;;;;;;;3.43;2.10;;;11.40;99.90;;;;;;5033799;28;20025;-43
2024/04/02 10:41:30;;;;;;;3.60;2.05;;;11.40;99.90;;;;;;5034998;28;20036;-39
2024/04/02 10:43:57;;;;;;;15.32;2.63;;;11.40;99.90;;;;;;5035259;28;20017;-39
2024/04/02 10:46:30;;;;;;;6.10;2.03;;;11.40;99.90;;;;;;5045662;28;20474;-40
2024/04/02 10:49:00;;;;;;;7.82;2.58;;;11.50;99.90;;;;;;5054565;28;20396;-38
2024/04/02 10:51:31;;;;;;;11.55;3.20;;;11.60;99.90;;;;;;5054652;28;20032;-40
2024/04/02 10:53:57;;;;;;;7.88;2.75;;;11.50;99.90;;;;;;5054749;28;20066;-40
2024/04/02 10:56:27;;;;;;;5.55;2.92;;;11.50;99.90;;;;;;5054669;28;20028;-41
2024/04/02 10:58:54;;;;;;;4.78;2.55;;;11.50;99.90;;;;;;5054668;28;20029;-38
2024/04/02 11:01:20;;;;;;;4.40;2.60;;;11.50;99.90;;;;;;5054383;28;20504;-46
2024/04/02 11:03:51;;;;;;;4.00;1.90;;;11.60;99.90;;;;;;5054186;28;20559;-39
2024/04/02 11:06:17;;;;;;;5.38;2.80;;;11.50;99.90;;;;;;5054409;28;20474;-39
2024/04/02 11:08:44;;;;;;;5.35;2.50;;;11.50;99.90;;;;;;5053907;28;20032;-42
2024/04/02 11:11:24;;;;;;;12.93;2.35;;;11.60;99.90;;;;;;5054401;28;20120;-40
2024/04/02 11:13:51;;;;;;;5.35;2.67;;;11.50;99.90;;;;;;5054292;28;20052;-46
2024/04/02 11:16:17;;;;;;;5.27;2.10;;;11.50;99.90;;;;;;5054097;28;20037;-39
2024/04/02 11:18:44;;;;;;;6.55;2.35;;;11.50;99.90;;;;;;5053934;28;20048;-39
2024/04/02 11:21:15;;;;;;;17.88;3.53;;;11.60;99.90;;;;;;5054046;28;20021;-42
2024/04/02 11:26:25;;;;;;;6.82;2.47;;;11.80;99.90;;;;;;5054041;28;20402;-42
2024/04/02 11:28:50;;;;;;;6.43;2.17;;;11.90;99.90;;;;;;5053847;28;20025;-45
2024/04/02 11:31:16;;;;;;;5.47;2.40;;;12.10;99.90;;;;;;5053734;28;20120;-43
2024/04/02 11:33:42;;;;;;;8.60;2.67;;;12.20;99.90;;;;;;5053978;28;20461;-39
2024/04/02 11:36:09;;;;;;;15.63;2.67;;;12.30;99.90;;;;;;5053732;28;20075;-39
2024/04/02 11:38:38;;;;;;;9.40;2.77;;;12.30;99.90;;;;;;5033819;28;20072;-39
2024/04/02 11:41:07;;;;;;;3.38;2.42;;;12.50;99.90;;;;;;5048464;28;20268;-38
2024/04/02 11:43:33;;;;;;;10.05;2.65;;;12.40;99.90;;;;;;5033809;28;20086;-40
2024/04/02 11:45:59;;;;;;;16.13;2.80;;;12.40;99.90;;;;;;5033548;28;20021;-38
2024/04/02 11:48:25;;;;;;;12.20;2.13;;;12.40;99.90;;;;;;5033863;28;20371;-54
2024/04/02 11:50:50;;;;;;;7.43;2.33;;;12.50;99.90;;;;;;5033356;28;20036;-53
2024/04/02 11:53:16;;;;;;;7.65;2.55;;;12.60;99.90;;;;;;5034055;28;20029;-53
2024/04/02 11:55:43;;;;;;;8.30;2.42;;;12.80;99.90;;;;;;5053315;28;20398;-54
2024/04/02 12:00:55;;;;;;;3.47;2.30;;;13.40;99.90;;;;;;5053332;28;20131;-53
2024/04/02 12:03:21;;;;;;;2.58;1.98;;;13.90;99.90;;;;;;5053493;28;20100;-53
2024/04/02 12:05:47;;;;;;;2.80;1.85;;;14.30;99.90;;;;;;5053161;28;20504;-54
2024/04/02 12:08:12;;;;;;;5.10;1.52;;;14.60;99.90;;;;;;5051349;28;20029;-49
2024/04/02 12:10:38;;;;;;;4.32;1.80;;;14.50;99.90;;;;;;5052677;28;20596;-54
2024/04/02 12:13:04;;;;;;;3.08;1.23;;;14.30;99.90;;;;;;5053396;28;20168;-54
2024/04/02 12:15:29;;;;;;;5.55;1.58;;;14.00;99.90;;;;;;5053178;28;20124;-53
2024/04/02 12:17:58;;;;;;;3.45;1.05;;;13.70;99.90;;;;;;5052985;28;20496;-54
2024/04/02 12:20:24;;;;;;;2.70;1.30;;;13.50;99.90;;;;;;5052326;28;20519;-53
2024/04/02 12:22:50;;;;;;;8.38;1.70;;;13.30;99.90;;;;;;5052781;28;20028;-55
2024/04/02 12:25:15;;;;;;;8.20;1.30;;;13.30;99.90;;;;;;5052698;28;20064;-49
2024/04/02 12:27:41;;;;;;;9.27;2.47;;;13.50;99.90;;;;;;5052494;28;20450;-53
2024/04/02 12:30:07;;;;;;;5.47;1.40;;;13.80;99.90;;;;;;5052274;28;20033;-57
2024/04/02 12:32:34;;;;;;;6.00;1.50;;;13.80;99.90;;;;;;5052316;28;20049;-56
2024/04/02 12:34:59;;;;;;;2.22;1.10;;;13.60;99.90;;;;;;5052350;28;20135;-52
2024/04/02 12:37:25;;;;;;;1.50;1.35;;;13.40;99.90;;;;;;5052366;28;20080;-52
2024/04/02 12:39:51;;;;;;;3.38;1.60;;;13.00;99.90;;;;;;5052678;28;20381;-54
2024/04/02 12:42:19;;;;;;;3.35;2.00;;;12.80;99.90;;;;;;5052564;28;20434;-53
2024/04/02 12:44:45;;;;;;;5.03;1.92;;;12.80;99.90;;;;;;5052751;28;20393;-55
2024/04/02 12:47:11;;;;;;;12.40;2.38;;;12.60;99.90;;;;;;5052723;28;20362;-53
2024/04/02 12:49:38;;;;;;;2.40;1.83;;;12.50;99.90;;;;;;5052285;28;20024;-54
2024/04/02 12:52:05;;;;;;;6.80;2.08;;;12.40;99.90;;;;;;5052173;28;20031;-55